createdAt,value
2018-05-18T00:00:32.448Z,49.70
2018-05-18T00:05:34.932Z,49.70
2018-05-18T00:10:37.424Z,49.60
2018-05-18T00:15:39.921Z,49.90
2018-05-18T00:20:42.418Z,49.90
2018-05-18T00:25:44.892Z,49.60
2018-05-18T00:30:47.367Z,49.60
2018-05-18T00:35:49.861Z,50.00
2018-05-18T00:40:52.336Z,49.80
2018-05-18T00:45:55.600Z,49.60
2018-05-18T00:50:58.096Z,49.60
2018-05-18T00:56:00.576Z,49.60
2018-05-18T01:01:03.056Z,49.80
2018-05-18T01:06:05.541Z,49.80
2018-05-18T01:11:08.023Z,49.90
2018-05-18T01:16:10.807Z,49.70
2018-05-18T01:21:14.052Z,49.70
2018-05-18T01:26:16.538Z,49.80
2018-05-18T01:31:19.078Z,49.60
2018-05-18T01:36:21.520Z,49.70
2018-05-18T01:41:24.011Z,49.80
2018-05-18T01:46:26.495Z,49.40
2018-05-18T01:51:28.988Z,49.50
2018-05-18T01:56:31.484Z,50.30
2018-05-18T02:01:33.967Z,49.50
2018-05-18T02:06:36.456Z,49.40
2018-05-18T02:11:39.700Z,49.40
2018-05-18T02:16:42.172Z,49.40
2018-05-18T02:21:44.643Z,49.30
2018-05-18T02:26:47.916Z,49.50
2018-05-18T02:31:50.396Z,50.00
2018-05-18T02:36:52.889Z,49.20
2018-05-18T02:41:55.384Z,49.30
2018-05-18T02:46:57.869Z,49.10
2018-05-18T02:52:00.363Z,49.80
2018-05-18T02:57:02.870Z,49.20
2018-05-18T03:02:05.345Z,49.20
2018-05-18T03:07:07.884Z,49.30
2018-05-18T03:12:10.381Z,49.10
2018-05-18T03:17:13.623Z,49.20
2018-05-18T03:22:16.111Z,49.20
2018-05-18T03:27:18.603Z,49.10
2018-05-18T03:32:21.092Z,49.20
2018-05-18T03:37:23.591Z,49.10
2018-05-18T03:42:26.084Z,49.10
2018-05-18T03:47:28.572Z,49.10
2018-05-18T03:52:31.052Z,48.50
2018-05-18T03:57:34.296Z,48.80
2018-05-18T04:02:48.603Z,48.70
2018-05-18T04:08:02.999Z,48.90
2018-05-18T04:13:06.248Z,48.90
2018-05-18T04:18:08.731Z,49.00
2018-05-18T04:23:11.215Z,49.00
2018-05-18T04:28:13.753Z,48.80
2018-05-18T04:33:16.180Z,48.60
2018-05-18T04:38:19.448Z,49.00
2018-05-18T04:43:21.956Z,48.90
2018-05-18T04:48:24.428Z,48.80
2018-05-18T04:53:26.928Z,48.70
2018-05-18T04:58:29.417Z,48.90
2018-05-18T05:03:31.939Z,49.30
2018-05-18T05:08:34.411Z,49.20
2018-05-18T05:13:36.901Z,50.10
2018-05-18T05:18:39.398Z,49.20
2018-05-18T05:23:41.954Z,49.10
2018-05-18T05:28:44.363Z,49.00
2018-05-18T05:33:46.860Z,49.10
2018-05-18T05:38:49.347Z,49.30
2018-05-18T05:43:51.824Z,48.90
2018-05-18T05:48:54.311Z,49.10
2018-05-18T05:53:56.796Z,49.30
2018-05-18T05:58:59.288Z,49.20
2018-05-18T06:04:01.776Z,49.30
2018-05-18T06:09:04.276Z,49.00
2018-05-18T06:14:06.768Z,49.20
2018-05-18T06:19:09.255Z,49.10
2018-05-18T06:24:11.747Z,49.10
2018-05-18T06:29:14.244Z,49.40
2018-05-18T06:34:16.741Z,49.30
2018-05-18T06:39:19.239Z,49.40
2018-05-18T06:44:21.718Z,49.30
2018-05-18T06:49:24.208Z,49.00
2018-05-18T06:54:26.699Z,49.50
2018-05-18T06:59:29.191Z,49.20
2018-05-18T07:04:31.675Z,49.50
2018-05-18T07:09:34.935Z,49.60
2018-05-18T07:14:37.424Z,49.40
2018-05-18T07:19:39.911Z,49.40
2018-05-18T07:24:42.387Z,49.30
2018-05-18T07:29:44.874Z,49.50
2018-05-18T07:34:47.348Z,49.40
2018-05-18T07:39:50.609Z,49.60
2018-05-18T07:44:53.099Z,49.50
2018-05-18T07:49:55.591Z,49.10
2018-05-18T07:54:58.067Z,49.60
2018-05-18T08:00:00.551Z,49.50
2018-05-18T08:05:03.024Z,49.00
2018-05-18T08:10:06.284Z,48.70
2018-05-18T08:15:08.818Z,48.70
2018-05-18T08:20:11.261Z,49.80
2018-05-18T08:25:13.812Z,49.80
2018-05-18T08:30:17.060Z,48.20
2018-05-18T08:35:20.379Z,49.40
2018-05-18T08:40:22.883Z,49.40
2018-05-18T08:45:25.364Z,49.40
2018-05-18T08:50:27.908Z,49.50
2018-05-18T08:55:30.348Z,49.00
2018-05-18T09:00:32.831Z,49.20
2018-05-18T09:05:35.317Z,48.80
2018-05-18T09:10:37.809Z,48.60
2018-05-18T09:15:40.295Z,47.80
2018-05-18T09:20:42.788Z,48.70
2018-05-18T09:25:45.277Z,49.40
2018-05-18T09:30:47.769Z,48.60
2018-05-18T09:35:50.251Z,48.10
2018-05-18T09:40:52.760Z,48.10
2018-05-18T09:45:56.012Z,48.00
2018-05-18T09:50:58.499Z,48.10
2018-05-18T09:56:00.980Z,47.60
2018-05-18T10:01:03.463Z,47.90
2018-05-18T10:06:05.952Z,47.90
2018-05-18T10:11:08.444Z,47.30
2018-05-18T10:16:10.936Z,48.20
2018-05-18T10:21:13.423Z,48.30
2018-05-18T10:26:15.916Z,48.10
2018-05-18T10:31:18.404Z,47.50
2018-05-18T10:36:20.896Z,48.10
2018-05-18T10:41:23.391Z,47.80
2018-05-18T10:46:25.870Z,47.90
2018-05-18T10:51:29.116Z,48.00
2018-05-18T10:56:31.611Z,47.90
2018-05-18T11:01:34.104Z,46.40
2018-05-18T11:06:36.594Z,48.70
2018-05-18T11:11:39.088Z,47.50
2018-05-18T11:16:41.576Z,48.10
2018-05-18T11:21:44.083Z,48.70
2018-05-18T11:26:46.565Z,46.60
2018-05-18T11:31:49.047Z,49.20
2018-05-18T11:36:51.523Z,48.90
2018-05-18T11:41:54.024Z,47.60
2018-05-18T11:46:56.516Z,47.40
2018-05-18T11:51:59.004Z,49.50
2018-05-18T11:57:01.491Z,49.90
2018-05-18T12:02:03.991Z,47.90
2018-05-18T12:07:06.477Z,48.10
2018-05-18T12:12:08.981Z,46.80
2018-05-18T12:17:11.485Z,46.30
2018-05-18T12:22:13.963Z,49.90
2018-05-18T12:27:16.443Z,49.10
2018-05-18T12:32:19.700Z,47.90
2018-05-18T12:37:22.188Z,47.70
2018-05-18T12:47:50.091Z,48.10
2018-05-18T12:52:52.572Z,49.40
2018-05-18T12:57:55.071Z,47.80
2018-05-18T13:02:57.550Z,47.80
2018-05-18T13:08:00.043Z,46.50
2018-05-18T13:13:03.303Z,47.30
2018-05-18T13:18:05.791Z,47.20
2018-05-18T13:23:08.271Z,49.20
2018-05-18T13:28:10.763Z,46.90
2018-05-18T13:33:13.247Z,48.40
2018-05-18T13:38:15.740Z,48.30
2018-05-18T13:43:18.235Z,46.90
2018-05-18T13:48:20.801Z,45.30
2018-05-18T13:53:23.305Z,47.90
2018-05-18T13:58:25.817Z,49.30
2018-05-18T14:03:29.958Z,49.20
2018-05-18T14:08:32.565Z,50.90
2018-05-18T14:13:35.040Z,48.30
2018-05-18T14:18:37.533Z,48.20
2018-05-18T14:23:40.027Z,47.30
2018-05-18T14:28:42.519Z,47.70
2018-05-18T14:33:45.003Z,48.40
2018-05-18T14:38:47.510Z,48.00
2018-05-18T14:43:50.085Z,48.70
2018-05-18T14:48:52.492Z,43.00
2018-05-18T14:53:54.984Z,45.20
2018-05-18T14:58:57.481Z,45.90
2018-05-18T15:03:59.960Z,46.70
2018-05-18T15:09:02.459Z,46.80
2018-05-18T15:14:04.940Z,45.00
2018-05-18T15:19:07.423Z,46.80
2018-05-18T15:24:09.923Z,46.60
2018-05-18T15:29:12.420Z,44.70
2018-05-18T15:34:14.983Z,43.90
2018-05-18T15:39:18.224Z,44.10
2018-05-18T15:44:20.715Z,44.20
2018-05-18T15:49:23.285Z,43.80
2018-05-18T15:54:25.789Z,42.90
2018-05-18T15:59:32.750Z,41.40
2018-05-18T16:04:35.260Z,42.30
2018-05-18T16:09:38.540Z,43.30
2018-05-18T16:14:41.019Z,43.30
2018-05-18T16:19:43.523Z,43.20
2018-05-18T16:24:46.004Z,43.70
2018-05-18T16:29:48.483Z,44.70
2018-05-18T16:34:51.740Z,44.10
2018-05-18T16:39:54.234Z,44.10
2018-05-18T16:44:56.726Z,45.10
2018-05-18T16:49:59.204Z,44.10
2018-05-18T16:55:01.693Z,45.10
2018-05-18T17:00:04.188Z,44.00
2018-05-18T17:05:06.680Z,43.20
2018-05-18T17:10:09.189Z,43.70
2018-05-18T17:15:11.664Z,44.70
2018-05-18T17:20:14.156Z,43.60
2018-05-18T17:25:16.648Z,44.90
2018-05-18T17:30:19.127Z,44.90
2018-05-18T17:35:21.623Z,45.30
2018-05-18T17:40:24.121Z,45.00
2018-05-18T17:45:26.595Z,44.60
2018-05-18T17:50:29.076Z,44.20
2018-05-18T17:55:31.568Z,44.40
2018-05-18T18:00:34.063Z,44.70
2018-05-18T18:05:36.551Z,44.50
2018-05-18T18:10:39.049Z,44.70
2018-05-18T18:15:41.535Z,44.70
2018-05-18T18:20:44.024Z,44.90
2018-05-18T18:25:47.376Z,45.20
2018-05-18T18:30:49.859Z,45.00
2018-05-18T18:35:52.384Z,45.30
2018-05-18T18:40:54.869Z,45.40
2018-05-18T18:45:57.360Z,45.10
2018-05-18T18:50:59.856Z,44.70
2018-05-18T18:56:02.335Z,45.30
2018-05-18T19:01:04.841Z,45.30
2018-05-18T19:06:07.332Z,45.50
2018-05-18T19:11:09.829Z,45.20
2018-05-18T19:16:12.311Z,45.80
2018-05-18T19:21:14.812Z,45.60
2018-05-18T19:26:17.296Z,46.00
2018-05-18T19:31:19.784Z,45.80
2018-05-18T19:36:22.256Z,46.20
2018-05-18T19:41:24.736Z,46.30
2018-05-18T19:46:27.216Z,46.30
2018-05-18T19:51:29.696Z,46.20
2018-05-18T19:56:32.187Z,47.20
2018-05-18T20:01:34.687Z,46.40
2018-05-18T20:06:37.168Z,46.50
2018-05-18T20:11:40.476Z,46.40
2018-05-18T20:16:43.735Z,46.80
2018-05-18T20:21:46.216Z,46.30
2018-05-18T20:26:48.712Z,46.40
2018-05-18T20:31:51.200Z,46.50
2018-05-18T20:36:53.680Z,46.60
2018-05-18T20:41:56.168Z,46.90
2018-05-18T20:46:58.659Z,46.60
2018-05-18T20:52:01.158Z,46.90
2018-05-18T20:57:03.640Z,46.60
2018-05-18T21:02:06.127Z,46.60
2018-05-18T21:07:08.616Z,46.90
2018-05-18T21:12:11.880Z,47.10
2018-05-18T21:17:14.364Z,46.90
2018-05-18T21:22:16.844Z,47.10
2018-05-18T21:27:19.331Z,47.10
2018-05-18T21:32:21.897Z,47.00
2018-05-18T21:37:24.315Z,47.20
2018-05-18T21:42:26.798Z,47.10
2018-05-18T21:47:29.288Z,47.20
2018-05-18T21:52:31.771Z,47.50
2018-05-18T21:57:34.263Z,47.10
2018-05-18T22:02:36.748Z,47.10
2018-05-18T22:07:40.008Z,47.50
2018-05-18T22:12:42.479Z,47.30
2018-05-18T22:17:45.800Z,47.20
2018-05-18T22:22:48.300Z,47.40
2018-05-18T22:27:50.784Z,47.40
2018-05-18T22:32:53.276Z,47.40
2018-05-18T22:37:55.773Z,47.50
2018-05-18T22:42:58.252Z,47.40
2018-05-18T22:48:00.752Z,47.70
2018-05-18T22:53:03.232Z,47.40
2018-05-18T22:58:05.718Z,48.20
2018-05-18T23:03:08.193Z,47.40
2018-05-18T23:08:11.441Z,47.80
2018-05-18T23:13:13.932Z,47.90
2018-05-18T23:18:16.417Z,47.90
2018-05-18T23:23:18.914Z,47.80
2018-05-18T23:28:21.389Z,47.70
2018-05-18T23:33:23.873Z,47.80
2018-05-18T23:38:26.449Z,48.00
2018-05-18T23:43:28.928Z,47.70
2018-05-18T23:48:32.192Z,47.90
2018-05-18T23:53:34.671Z,47.90
2018-05-18T23:58:37.160Z,48.00
